createdAt,value
2019-06-26T00:00:47.556Z,69.40
2019-06-26T00:03:36.550Z,69.50
2019-06-26T00:06:25.098Z,69.40
2019-06-26T00:09:13.449Z,69.40
2019-06-26T00:12:01.945Z,69.40
2019-06-26T00:14:50.139Z,69.40
2019-06-26T00:17:38.779Z,69.50
2019-06-26T00:20:26.909Z,69.50
2019-06-26T00:23:15.306Z,69.50
2019-06-26T00:26:03.667Z,69.50
2019-06-26T00:28:51.883Z,69.60
2019-06-26T00:31:41.173Z,69.60
2019-06-26T00:34:29.559Z,69.70
2019-06-26T00:37:18.290Z,69.50
2019-06-26T00:40:09.132Z,69.60
2019-06-26T00:42:57.533Z,69.50
2019-06-26T00:45:46.210Z,69.60
2019-06-26T00:48:35.251Z,69.80
2019-06-26T00:51:23.812Z,69.60
2019-06-26T00:54:12.460Z,69.70
2019-06-26T00:57:00.760Z,69.70
2019-06-26T00:59:49.133Z,69.70
2019-06-26T01:02:38.842Z,69.70
2019-06-26T01:05:27.236Z,69.80
2019-06-26T01:08:16.176Z,70.00
2019-06-26T01:11:05.796Z,70.00
2019-06-26T01:13:57.972Z,69.80
2019-06-26T01:16:43.985Z,69.90
2019-06-26T01:19:32.980Z,69.90
2019-06-26T01:22:21.346Z,69.90
2019-06-26T01:25:10.898Z,69.90
2019-06-26T01:27:59.476Z,70.00
2019-06-26T01:30:47.737Z,70.00
2019-06-26T01:33:36.283Z,69.90
2019-06-26T01:36:24.934Z,70.00
2019-06-26T01:39:14.270Z,70.10
2019-06-26T01:42:02.899Z,69.90
2019-06-26T01:44:51.788Z,70.20
2019-06-26T01:47:40.175Z,70.00
2019-06-26T01:50:28.483Z,70.00
2019-06-26T01:53:17.014Z,70.00
2019-06-26T01:56:05.693Z,70.20
2019-06-26T01:58:55.008Z,70.10
2019-06-26T02:01:43.765Z,70.10
2019-06-26T02:04:32.162Z,70.10
2019-06-26T02:07:20.973Z,70.20
2019-06-26T02:10:11.068Z,70.10
2019-06-26T02:12:59.566Z,70.10
2019-06-26T02:15:48.040Z,70.20
2019-06-26T02:18:41.053Z,70.20
2019-06-26T02:21:30.237Z,70.20
2019-06-26T02:24:18.424Z,70.30
2019-06-26T02:27:07.408Z,70.10
2019-06-26T02:29:55.811Z,70.30
2019-06-26T02:32:44.706Z,70.20
2019-06-26T02:35:32.793Z,70.30
2019-06-26T02:38:20.807Z,70.30
2019-06-26T02:41:09.101Z,70.40
2019-06-26T02:43:58.565Z,70.50
2019-06-26T02:46:46.822Z,70.40
2019-06-26T02:49:35.588Z,70.40
2019-06-26T02:52:24.300Z,70.40
2019-06-26T02:55:13.008Z,70.40
2019-06-26T02:58:01.881Z,70.50
2019-06-26T03:00:50.601Z,70.30
2019-06-26T03:03:39.032Z,70.40
2019-06-26T03:06:27.366Z,70.50
2019-06-26T03:09:16.083Z,70.40
2019-06-26T03:12:05.278Z,70.50
2019-06-26T03:15:07.863Z,70.60
2019-06-26T03:17:54.743Z,70.50
2019-06-26T03:20:36.452Z,70.70
2019-06-26T03:23:25.260Z,70.70
2019-06-26T03:26:14.356Z,70.60
2019-06-26T03:29:03.865Z,70.70
2019-06-26T03:31:51.923Z,70.80
2019-06-26T03:34:40.205Z,70.70
2019-06-26T03:37:28.292Z,70.70
2019-06-26T03:40:16.966Z,70.80
2019-06-26T03:43:05.364Z,70.70
2019-06-26T03:45:53.891Z,70.70
2019-06-26T03:48:42.137Z,70.70
2019-06-26T03:51:30.830Z,70.50
2019-06-26T03:54:19.355Z,70.70
2019-06-26T03:57:07.731Z,70.60
2019-06-26T03:59:56.312Z,70.80
2019-06-26T04:02:44.768Z,70.70
2019-06-26T04:05:34.212Z,70.80
2019-06-26T04:08:22.957Z,70.70
2019-06-26T04:11:11.608Z,70.70
2019-06-26T04:13:59.898Z,70.70
2019-06-26T04:16:48.483Z,70.70
2019-06-26T04:19:37.880Z,70.60
2019-06-26T04:22:26.447Z,70.70
2019-06-26T04:25:15.780Z,70.70
2019-06-26T04:28:06.339Z,70.70
2019-06-26T04:30:53.965Z,70.70
2019-06-26T04:33:43.327Z,70.70
2019-06-26T04:36:34.515Z,70.70
2019-06-26T04:39:22.777Z,70.80
2019-06-26T04:42:11.487Z,70.80
2019-06-26T04:44:59.651Z,70.80
2019-06-26T04:47:47.700Z,70.80
2019-06-26T04:50:35.996Z,70.70
2019-06-26T04:53:25.443Z,70.80
2019-06-26T04:56:13.800Z,70.80
2019-06-26T04:59:02.269Z,70.80
2019-06-26T05:01:50.751Z,70.80
2019-06-26T05:04:38.843Z,70.80
2019-06-26T05:07:27.534Z,70.80
2019-06-26T05:10:16.386Z,70.80
2019-06-26T05:13:04.639Z,70.80
2019-06-26T05:15:52.933Z,70.80
2019-06-26T05:18:41.997Z,70.80
2019-06-26T05:21:30.783Z,70.80
2019-06-26T05:24:20.065Z,71.50
2019-06-26T05:27:08.312Z,70.80
2019-06-26T05:29:56.516Z,70.90
2019-06-26T05:32:45.277Z,70.80
2019-06-26T05:35:35.358Z,70.80
2019-06-26T05:38:24.200Z,70.80
2019-06-26T05:41:12.823Z,70.70
2019-06-26T05:44:01.396Z,70.70
2019-06-26T05:46:50.361Z,70.60
2019-06-26T05:49:39.146Z,70.60
2019-06-26T05:52:27.202Z,70.60
2019-06-26T05:55:16.568Z,70.50
2019-06-26T05:58:04.804Z,70.60
2019-06-26T06:00:53.294Z,70.50
2019-06-26T06:03:41.386Z,70.50
2019-06-26T06:06:41.098Z,70.40
2019-06-26T06:09:21.804Z,71.00
2019-06-26T06:12:10.095Z,71.50
2019-06-26T06:14:58.499Z,71.70
2019-06-26T06:17:47.304Z,70.80
2019-06-26T06:20:38.332Z,70.70
2019-06-26T06:23:26.373Z,71.40
2019-06-26T06:26:14.816Z,71.70
2019-06-26T06:29:04.698Z,71.60
2019-06-26T06:31:52.726Z,71.90
2019-06-26T06:34:41.492Z,71.60
2019-06-26T06:37:29.607Z,71.60
2019-06-26T06:40:18.230Z,70.90
2019-06-26T06:43:08.590Z,71.50
2019-06-26T06:45:57.240Z,71.50
2019-06-26T06:48:46.330Z,70.90
2019-06-26T06:51:34.746Z,71.80
2019-06-26T06:54:23.578Z,72.60
2019-06-26T06:57:12.032Z,71.90
2019-06-26T07:00:00.826Z,71.90
2019-06-26T07:02:49.802Z,72.80
2019-06-26T07:05:38.230Z,72.90
2019-06-26T07:08:26.656Z,73.00
2019-06-26T07:11:14.712Z,73.30
2019-06-26T07:14:03.253Z,72.80
2019-06-26T07:16:51.539Z,73.40
2019-06-26T07:19:40.112Z,73.20
2019-06-26T07:22:28.366Z,73.20
2019-06-26T07:25:17.632Z,73.70
2019-06-26T07:28:07.619Z,73.80
2019-06-26T07:30:56.026Z,74.20
2019-06-26T07:33:44.162Z,74.70
2019-06-26T07:36:32.597Z,75.00
2019-06-26T07:39:21.429Z,74.20
2019-06-26T07:42:10.102Z,74.20
2019-06-26T07:44:58.529Z,75.90
2019-06-26T07:47:46.896Z,74.80
2019-06-26T07:50:35.308Z,76.50
2019-06-26T07:53:23.713Z,76.40
2019-06-26T07:56:12.350Z,75.30
2019-06-26T07:59:01.046Z,76.40
2019-06-26T08:01:49.394Z,76.00
2019-06-26T08:04:37.993Z,76.10
2019-06-26T08:07:26.513Z,76.40
2019-06-26T08:10:17.002Z,76.20
2019-06-26T08:13:05.439Z,75.50
2019-06-26T08:15:53.754Z,76.80
2019-06-26T08:18:42.563Z,76.40
2019-06-26T08:21:31.118Z,75.90
2019-06-26T08:24:19.980Z,75.70
2019-06-26T08:27:08.392Z,75.70
2019-06-26T08:29:57.639Z,75.60
2019-06-26T08:32:46.223Z,75.10
2019-06-26T08:35:34.812Z,75.00
2019-06-26T08:38:23.259Z,74.70
2019-06-26T08:41:11.922Z,75.40
2019-06-26T08:44:00.306Z,75.30
2019-06-26T08:46:48.544Z,74.80
2019-06-26T08:49:37.348Z,74.80
2019-06-26T08:52:26.612Z,75.20
2019-06-26T08:55:15.591Z,75.20
2019-06-26T08:58:05.722Z,74.70
2019-06-26T09:00:53.997Z,75.90
2019-06-26T09:03:42.287Z,75.00
2019-06-26T09:06:30.739Z,74.30
2019-06-26T09:09:19.344Z,74.10
2019-06-26T09:12:07.542Z,74.10
2019-06-26T09:14:56.091Z,73.80
2019-06-26T09:17:44.632Z,73.50
2019-06-26T09:20:36.153Z,73.70
2019-06-26T09:23:24.303Z,74.70
2019-06-26T09:26:12.842Z,74.20
2019-06-26T09:29:01.403Z,74.70
2019-06-26T09:31:49.477Z,74.80
2019-06-26T09:34:38.177Z,74.40
2019-06-26T09:37:26.464Z,74.50
2019-06-26T09:40:15.705Z,74.10
2019-06-26T09:43:04.204Z,74.50
2019-06-26T09:45:52.743Z,75.10
2019-06-26T09:48:52.092Z,74.80
2019-06-26T09:51:31.378Z,74.60
2019-06-26T09:54:20.371Z,74.30
2019-06-26T09:57:08.551Z,74.60
2019-06-26T09:59:56.830Z,74.40
2019-06-26T10:02:45.861Z,74.00
2019-06-26T10:05:34.331Z,74.00
2019-06-26T10:08:22.830Z,73.80
2019-06-26T10:11:11.149Z,74.00
2019-06-26T10:14:00.076Z,74.00
2019-06-26T10:16:48.567Z,73.50
2019-06-26T10:19:36.864Z,73.70
2019-06-26T10:22:25.290Z,73.50
2019-06-26T10:25:15.536Z,73.40
2019-06-26T10:28:04.233Z,73.40
2019-06-26T10:30:52.544Z,73.30
2019-06-26T10:33:40.729Z,73.40
2019-06-26T10:36:29.214Z,73.20
2019-06-26T10:39:17.412Z,73.40
2019-06-26T10:42:05.931Z,72.90
2019-06-26T10:44:54.182Z,73.40
2019-06-26T10:47:42.388Z,73.10
2019-06-26T10:50:31.460Z,68.30
2019-06-26T10:53:20.060Z,64.80
2019-06-26T10:56:08.900Z,63.70
2019-06-26T10:58:57.499Z,62.90
2019-06-26T11:01:45.753Z,62.40
2019-06-26T11:04:34.372Z,62.20
2019-06-26T11:07:22.865Z,62.70
2019-06-26T11:10:13.159Z,59.60
2019-06-26T11:13:01.466Z,59.60
2019-06-26T11:15:50.213Z,59.80
2019-06-26T11:18:38.522Z,59.60
2019-06-26T11:21:26.866Z,59.50
2019-06-26T11:24:15.057Z,59.60
2019-06-26T11:27:03.717Z,60.30
2019-06-26T11:29:52.481Z,60.00
2019-06-26T11:32:41.134Z,59.60
2019-06-26T11:35:31.011Z,61.80
2019-06-26T11:38:19.846Z,62.90
2019-06-26T11:41:08.992Z,63.70
2019-06-26T11:43:56.905Z,64.30
2019-06-26T11:46:45.519Z,64.60
2019-06-26T11:49:33.845Z,64.90
2019-06-26T11:52:23.817Z,65.20
2019-06-26T11:55:15.151Z,65.40
2019-06-26T11:58:04.038Z,65.40
2019-06-26T12:00:52.726Z,65.60
2019-06-26T12:03:41.090Z,65.80
2019-06-26T12:06:29.442Z,65.80
2019-06-26T12:09:18.094Z,65.90
2019-06-26T12:12:06.445Z,66.00
2019-06-26T12:14:54.841Z,66.20
2019-06-26T12:17:42.883Z,66.40
2019-06-26T12:20:31.919Z,66.10
2019-06-26T12:23:20.486Z,66.40
2019-06-26T12:26:08.978Z,66.50
2019-06-26T12:28:57.145Z,66.80
2019-06-26T12:31:45.671Z,66.90
2019-06-26T12:34:34.475Z,66.50
2019-06-26T12:37:36.664Z,66.60
2019-06-26T12:40:13.043Z,67.80
2019-06-26T12:43:01.511Z,68.50
2019-06-26T12:45:49.708Z,68.60
2019-06-26T12:48:37.886Z,68.70
2019-06-26T12:51:26.953Z,68.60
2019-06-26T12:54:14.929Z,69.30
2019-06-26T12:57:03.567Z,68.20
2019-06-26T12:59:57.179Z,67.90
2019-06-26T13:02:43.425Z,67.90
2019-06-26T13:05:31.764Z,68.00
2019-06-26T13:08:20.504Z,67.80
2019-06-26T13:11:08.781Z,67.30
2019-06-26T13:14:02.474Z,67.20
2019-06-26T13:16:47.543Z,67.40
2019-06-26T13:19:35.904Z,67.50
2019-06-26T13:22:24.371Z,67.00
2019-06-26T13:25:15.939Z,67.00
2019-06-26T13:28:04.185Z,66.60
2019-06-26T13:30:53.488Z,67.00
2019-06-26T13:33:42.572Z,66.60
2019-06-26T13:36:31.251Z,66.40
2019-06-26T13:39:19.501Z,66.10
2019-06-26T13:42:08.155Z,65.70
2019-06-26T13:44:56.565Z,65.70
2019-06-26T13:47:45.153Z,65.40
2019-06-26T13:50:33.597Z,65.10
2019-06-26T13:53:21.809Z,65.10
2019-06-26T13:56:11.779Z,64.90
2019-06-26T13:59:00.387Z,64.60
2019-06-26T14:01:49.195Z,64.60
2019-06-26T14:04:37.476Z,64.20
2019-06-26T14:07:26.801Z,63.60
2019-06-26T14:10:16.035Z,63.80
2019-06-26T14:13:04.977Z,63.70
2019-06-26T14:15:53.612Z,63.50
2019-06-26T14:18:41.909Z,63.40
2019-06-26T14:21:30.247Z,64.30
2019-06-26T14:24:18.762Z,64.10
2019-06-26T14:27:07.360Z,63.90
2019-06-26T14:29:55.903Z,63.80
2019-06-26T14:32:44.780Z,63.70
2019-06-26T14:35:33.008Z,63.10
2019-06-26T14:38:21.575Z,62.90
2019-06-26T14:41:09.632Z,63.00
2019-06-26T14:43:57.907Z,62.50
2019-06-26T14:46:46.199Z,62.40
2019-06-26T14:49:34.342Z,62.20
2019-06-26T14:52:22.808Z,61.90
2019-06-26T14:55:11.817Z,61.90
2019-06-26T14:58:00.149Z,61.00
2019-06-26T15:00:48.808Z,60.90
2019-06-26T15:03:37.103Z,60.50
2019-06-26T15:06:25.740Z,60.80
2019-06-26T15:09:13.985Z,61.30
2019-06-26T15:12:02.481Z,61.40
2019-06-26T15:14:55.678Z,61.10
2019-06-26T15:17:46.867Z,61.00
2019-06-26T15:20:37.442Z,60.80
2019-06-26T15:23:26.392Z,60.80
2019-06-26T15:26:14.653Z,60.80
2019-06-26T15:29:03.083Z,60.40
2019-06-26T15:31:51.316Z,60.20
2019-06-26T15:34:39.631Z,60.10
2019-06-26T15:37:27.874Z,60.10
2019-06-26T15:40:17.867Z,60.00
2019-06-26T15:43:06.145Z,59.60
2019-06-26T15:45:54.913Z,59.60
2019-06-26T15:48:43.040Z,59.50
2019-06-26T15:51:32.411Z,59.40
2019-06-26T15:54:21.283Z,59.30
2019-06-26T15:57:09.832Z,59.00
2019-06-26T15:59:58.112Z,59.10
2019-06-26T16:02:46.293Z,54.00
2019-06-26T16:05:35.342Z,55.60
2019-06-26T16:08:24.268Z,56.60
2019-06-26T16:11:12.882Z,56.80
2019-06-26T16:14:01.313Z,56.60
2019-06-26T16:16:51.155Z,57.10
2019-06-26T16:19:39.527Z,57.70
2019-06-26T16:22:32.724Z,57.50
2019-06-26T16:25:18.104Z,57.80
2019-06-26T16:28:06.399Z,57.90
2019-06-26T16:30:54.843Z,58.00
2019-06-26T16:33:43.328Z,57.00
2019-06-26T16:36:31.630Z,57.60
2019-06-26T16:39:20.023Z,57.90
2019-06-26T16:42:08.155Z,57.40
2019-06-26T16:44:56.403Z,57.80
2019-06-26T16:47:44.830Z,57.90
2019-06-26T16:50:33.071Z,58.00
2019-06-26T16:53:21.195Z,57.20
2019-06-26T16:56:09.666Z,57.00
2019-06-26T16:58:58.500Z,56.80
2019-06-26T17:01:46.748Z,56.80
2019-06-26T17:04:35.116Z,57.00
2019-06-26T17:07:23.488Z,55.40
2019-06-26T17:10:13.417Z,56.30
2019-06-26T17:13:02.602Z,57.20
2019-06-26T17:15:51.951Z,57.60
2019-06-26T17:18:22.610Z,58.00
2019-06-26T17:21:11.169Z,58.20
2019-06-26T17:24:00.163Z,57.70
2019-06-26T17:26:48.536Z,57.70
2019-06-26T17:29:36.938Z,58.00
2019-06-26T17:32:25.536Z,57.90
2019-06-26T17:35:14.742Z,58.10
2019-06-26T17:38:03.071Z,58.40
2019-06-26T17:40:51.302Z,58.70
2019-06-26T17:43:39.544Z,58.70
2019-06-26T17:46:27.904Z,58.80
2019-06-26T17:49:16.383Z,58.90
2019-06-26T17:52:04.580Z,59.10
2019-06-26T17:54:53.189Z,59.10
2019-06-26T17:57:42.009Z,59.10
2019-06-26T18:00:33.237Z,59.20
2019-06-26T18:03:21.620Z,59.30
2019-06-26T18:06:10.737Z,59.40
2019-06-26T18:08:58.976Z,59.40
2019-06-26T18:11:47.369Z,59.40
2019-06-26T18:14:35.935Z,59.50
2019-06-26T18:17:24.120Z,59.50
2019-06-26T18:20:13.633Z,59.50
2019-06-26T18:23:06.949Z,59.60
2019-06-26T18:25:54.567Z,59.60
2019-06-26T18:28:43.204Z,59.70
2019-06-26T18:31:31.420Z,59.70
2019-06-26T18:34:19.735Z,59.70
2019-06-26T18:37:08.184Z,59.80
2019-06-26T18:39:56.811Z,59.80
2019-06-26T18:42:45.430Z,59.90
2019-06-26T18:45:33.513Z,60.00
2019-06-26T18:48:24.820Z,59.90
2019-06-26T18:51:13.067Z,60.70
2019-06-26T18:54:02.060Z,61.10
2019-06-26T18:56:50.500Z,59.90
2019-06-26T18:59:42.152Z,59.90
2019-06-26T19:02:28.763Z,59.90
2019-06-26T19:05:16.948Z,60.00
2019-06-26T19:08:05.737Z,60.00
2019-06-26T19:10:54.260Z,60.10
2019-06-26T19:13:42.960Z,60.20
2019-06-26T19:16:30.967Z,60.40
2019-06-26T19:19:01.653Z,60.30
2019-06-26T19:21:49.981Z,60.40
2019-06-26T19:24:38.299Z,60.40
2019-06-26T19:27:26.811Z,60.50
2019-06-26T19:30:17.411Z,60.60
2019-06-26T19:33:06.138Z,60.80
2019-06-26T19:35:54.500Z,60.70
2019-06-26T19:38:43.240Z,61.00
2019-06-26T19:41:31.820Z,61.00
2019-06-26T19:44:02.556Z,61.10
2019-06-26T19:46:33.283Z,61.10
2019-06-26T19:49:04.402Z,61.20
2019-06-26T19:51:35.188Z,61.20
2019-06-26T19:54:27.755Z,61.30
2019-06-26T19:57:13.802Z,62.10
2019-06-26T20:00:03.420Z,61.40
2019-06-26T20:02:52.329Z,61.50
2019-06-26T20:05:40.627Z,61.70
2019-06-26T20:08:29.508Z,61.50
2019-06-26T20:11:18.291Z,61.60
2019-06-26T20:14:06.838Z,61.70
2019-06-26T20:16:55.479Z,61.70
2019-06-26T20:19:44.010Z,61.70
2019-06-26T20:22:32.512Z,62.00
2019-06-26T20:25:21.829Z,61.90
2019-06-26T20:28:10.397Z,62.10
2019-06-26T20:30:58.984Z,62.20
2019-06-26T20:33:47.047Z,62.00
2019-06-26T20:36:35.806Z,62.20
2019-06-26T20:39:24.754Z,62.20
2019-06-26T20:42:12.734Z,62.30
2019-06-26T20:45:01.408Z,62.40
2019-06-26T20:47:49.581Z,62.40
2019-06-26T20:50:38.005Z,62.40
2019-06-26T20:53:27.954Z,62.70
2019-06-26T20:56:16.047Z,62.60
2019-06-26T20:59:04.496Z,62.80
2019-06-26T21:01:53.189Z,62.70
2019-06-26T21:04:41.842Z,62.80
2019-06-26T21:07:30.346Z,63.50
2019-06-26T21:10:18.879Z,62.90
2019-06-26T21:13:07.639Z,63.00
2019-06-26T21:15:56.050Z,62.80
2019-06-26T21:18:44.289Z,62.60
2019-06-26T21:21:32.476Z,62.90
2019-06-26T21:24:20.865Z,62.80
2019-06-26T21:27:09.634Z,63.00
2019-06-26T21:29:58.197Z,63.10
2019-06-26T21:32:46.869Z,63.00
2019-06-26T21:35:35.025Z,63.00
2019-06-26T21:38:23.691Z,63.10
2019-06-26T21:41:12.194Z,63.00
2019-06-26T21:44:00.685Z,63.20
2019-06-26T21:46:49.031Z,63.00
2019-06-26T21:49:37.569Z,63.10
2019-06-26T21:52:25.736Z,63.20
2019-06-26T21:55:15.187Z,63.20
2019-06-26T21:58:03.404Z,63.30
2019-06-26T22:00:52.584Z,63.30
2019-06-26T22:03:40.930Z,63.40
2019-06-26T22:06:30.198Z,63.40
2019-06-26T22:09:18.973Z,63.50
2019-06-26T22:12:08.660Z,63.50
2019-06-26T22:14:56.748Z,63.50
2019-06-26T22:17:44.832Z,63.70
2019-06-26T22:20:33.608Z,63.70
2019-06-26T22:23:21.802Z,63.70
2019-06-26T22:26:13.763Z,63.70
2019-06-26T22:29:00.213Z,63.70
2019-06-26T22:31:48.750Z,63.90
2019-06-26T22:34:36.891Z,63.80
2019-06-26T22:37:25.476Z,63.80
2019-06-26T22:40:14.450Z,63.90
2019-06-26T22:43:03.420Z,63.80
2019-06-26T22:45:52.130Z,64.00
2019-06-26T22:48:40.142Z,64.00
2019-06-26T22:51:28.404Z,63.90
2019-06-26T22:54:19.751Z,64.00
2019-06-26T22:57:07.107Z,64.00
2019-06-26T22:59:55.863Z,64.00
2019-06-26T23:02:44.271Z,64.10
2019-06-26T23:05:32.871Z,64.10
2019-06-26T23:08:21.129Z,64.10
2019-06-26T23:11:10.162Z,64.10
2019-06-26T23:13:58.684Z,64.20
2019-06-26T23:16:47.239Z,64.10
2019-06-26T23:19:35.603Z,64.10
2019-06-26T23:22:23.994Z,64.10
2019-06-26T23:25:12.758Z,64.10
2019-06-26T23:28:01.235Z,64.20
2019-06-26T23:30:50.576Z,64.10
2019-06-26T23:33:39.043Z,64.20
2019-06-26T23:36:27.302Z,64.10
2019-06-26T23:39:15.888Z,64.10
2019-06-26T23:42:05.188Z,64.20
2019-06-26T23:44:53.843Z,64.20
2019-06-26T23:47:42.520Z,64.10
2019-06-26T23:50:31.072Z,64.10
2019-06-26T23:53:19.738Z,64.10
2019-06-26T23:56:07.801Z,64.20
2019-06-26T23:58:55.935Z,64.20
